Time;durP1;ratioP1;P1;durP2;ratioP2;P2;SDS_P1;SDS_P2;PMS_P1;PMS_P2;Temp;Humidity;BMP_temperature;BMP_pressure;BME280_temperature;BME280_humidity;BME280_pressure;Samples;Min_cycle;Max_cycle;Signal;HPM_P1;HPM_P2
2021/10/24 00:01:50;;;;;;;;;;;;;;;21.03;51.85;101992.38;7292221;19;153128;-50
2021/10/24 00:04:17;;;;;;;;;;;;;;;21.00;52.00;101988.16;7283923;19;151980;-50
2021/10/24 00:06:44;;;;;;;;;;;;;;;20.98;52.19;101986.78;7287781;19;153337;-50
2021/10/24 00:09:10;;;;;;;;;;;;;;;20.95;52.29;101981.72;7284513;19;153256;-50
2021/10/24 00:11:38;;;;;;;;;;;;;;;20.96;51.99;101972.16;7285775;19;152043;-50
2021/10/24 00:14:06;;;;;;;;;;;;;;;20.96;52.20;101977.78;7286629;19;153181;-50
2021/10/24 00:16:33;;;;;;;;;;;;;;;20.92;52.40;101973.88;7283432;19;153392;-50
2021/10/24 00:19:01;;;;;;;;;;;;;;;20.89;52.52;101977.25;7286408;19;151746;-50
2021/10/24 00:21:27;;;;;;;;;;;;;;;20.86;52.68;101962.66;7283722;19;153155;-50
2021/10/24 00:23:54;;;;;;;;;;;;;;;20.84;52.74;101964.91;7291649;19;152212;-50
2021/10/24 00:26:21;;;;;;;;;;;;;;;20.81;52.91;101970.25;7283073;19;153347;-50
2021/10/24 00:28:48;;;;;;;;;;;;;;;20.83;52.60;101968.00;7284775;19;154439;-50
2021/10/24 00:31:15;;;;;;;;;;;;;;;20.80;52.71;101969.41;7285615;19;152078;-51
2021/10/24 00:33:42;;;;;;;;;;;;;;;20.78;52.85;101954.81;7284285;19;152795;-50
2021/10/24 00:36:19;;;;;;;;;;;;;;;20.76;53.25;101953.41;7282365;19;152224;-50
2021/10/24 00:38:46;;;;;;;;;;;;;;;20.74;53.35;101956.50;7285334;19;152402;-50
2021/10/24 00:41:13;;;;;;;;;;;;;;;20.73;52.99;101949.22;7284717;19;153278;-50
2021/10/24 00:43:40;;;;;;;;;;;;;;;20.74;53.17;101944.44;7280794;19;153189;-50
2021/10/24 00:46:07;;;;;;;;;;;;;;;20.70;53.49;101955.41;7292240;19;152123;-50
2021/10/24 00:48:54;;;;;;;;;;;;;;;20.73;53.10;101952.03;7286041;19;156221;-51
2021/10/24 00:51:20;;;;;;;;;;;;;;;20.75;52.79;101946.97;7287230;19;152147;-50
2021/10/24 00:53:47;;;;;;;;;;;;;;;20.75;53.20;101946.97;7285945;19;153609;-50
2021/10/24 00:56:14;;;;;;;;;;;;;;;20.72;53.10;101952.28;7286740;19;153828;-51
2021/10/24 00:58:41;;;;;;;;;;;;;;;20.68;53.64;101946.41;7284555;19;151907;-51
2021/10/24 01:01:08;;;;;;;;;;;;;;;20.69;53.65;101944.44;7287055;19;152634;-50
2021/10/24 01:03:36;;;;;;;;;;;;;;;20.66;53.82;101947.84;7284238;19;152696;-50
2021/10/24 01:06:04;;;;;;;;;;;;;;;20.65;53.78;101947.00;7282589;19;151967;-50
2021/10/24 01:08:32;;;;;;;;;;;;;;;20.65;53.62;101949.81;7294437;19;153111;-50
2021/10/24 01:11:00;;;;;;;;;;;;;;;20.63;53.91;101949.22;7285601;19;151909;-50
2021/10/24 01:13:27;;;;;;;;;;;;;;;20.63;54.09;101946.44;7286418;19;152634;-50
2021/10/24 01:16:04;;;;;;;;;;;;;;;20.62;54.07;101943.91;7284208;19;153266;-50
2021/10/24 01:18:31;;;;;;;;;;;;;;;20.59;53.93;101938.84;7285770;19;151856;-51
2021/10/24 01:20:57;;;;;;;;;;;;;;;20.57;54.27;101938.31;7287265;19;152662;-50
2021/10/24 01:23:24;;;;;;;;;;;;;;;20.57;54.10;101936.34;7285066;19;154280;-50
2021/10/24 01:25:53;;;;;;;;;;;;;;;20.56;54.08;101934.66;7284491;19;151768;-50
2021/10/24 01:28:20;;;;;;;;;;;;;;;20.54;54.35;101931.28;7291766;19;152019;-50
2021/10/24 01:30:46;;;;;;;;;;;;;;;20.53;54.55;101935.25;7287257;19;151800;-50
2021/10/24 01:33:14;;;;;;;;;;;;;;;20.52;54.13;101927.09;7285354;19;152071;-51
2021/10/24 01:35:50;;;;;;;;;;;;;;;20.50;54.32;101927.38;7285378;19;153269;-51
2021/10/24 01:38:16;;;;;;;;;;;;;;;20.50;54.77;101935.78;7285590;19;151498;-50
2021/10/24 01:40:44;;;;;;;;;;;;;;;20.48;54.65;101926.00;7285038;19;153410;-50
2021/10/24 01:43:11;;;;;;;;;;;;;;;20.49;54.81;101928.47;7282442;19;153863;-50
2021/10/24 01:45:38;;;;;;;;;;;;;;;20.48;54.70;101917.56;7283832;19;151985;-50
2021/10/24 01:48:05;;;;;;;;;;;;;;;20.46;54.81;101917.00;7285517;19;152838;-50
2021/10/24 01:50:36;;;;;;;;;;;;;;;20.44;55.38;101913.66;7293125;19;153748;-50
2021/10/24 01:53:03;;;;;;;;;;;;;;;20.44;54.93;101905.22;7283505;19;152795;-51
2021/10/24 01:55:31;;;;;;;;;;;;;;;20.43;55.24;101912.81;7284532;19;154083;-50
2021/10/24 01:57:59;;;;;;;;;;;;;;;20.42;55.20;101902.69;7284030;19;151943;-50
2021/10/24 02:00:26;;;;;;;;;;;;;;;20.41;55.73;101907.47;7280144;19;153260;-50
2021/10/24 02:02:53;;;;;;;;;;;;;;;20.40;55.66;101902.97;7282576;19;154284;-50
2021/10/24 02:05:21;;;;;;;;;;;;;;;20.39;55.68;101892.88;7280194;19;151769;-50
2021/10/24 02:07:48;;;;;;;;;;;;;;;20.39;55.96;101892.03;7285494;19;152790;-49
2021/10/24 02:10:15;;;;;;;;;;;;;;;20.37;56.15;101892.31;7284936;19;153545;-50
2021/10/24 02:12:42;;;;;;;;;;;;;;;20.37;56.08;101883.06;7292967;19;152014;-50
2021/10/24 02:15:10;;;;;;;;;;;;;;;20.35;56.31;101886.13;7283460;19;153282;-50
2021/10/24 02:17:37;;;;;;;;;;;;;;;20.36;56.40;101878.56;7291949;19;151758;-50
2021/10/24 02:20:04;;;;;;;;;;;;;;;20.34;56.40;101876.06;7289429;19;152585;-50
2021/10/24 02:22:31;;;;;;;;;;;;;;;20.33;56.53;101874.38;7289319;19;153626;-50
2021/10/24 02:24:58;;;;;;;;;;;;;;;20.32;56.23;101867.06;7289386;19;151980;-50
2021/10/24 02:27:26;;;;;;;;;;;;;;;20.33;56.54;101857.53;7289846;19;152932;-49
2021/10/24 02:29:53;;;;;;;;;;;;;;;20.29;56.75;101862.00;7289773;19;153600;-50
2021/10/24 02:32:20;;;;;;;;;;;;;;;20.30;56.83;101857.25;7289188;19;152514;-50
2021/10/24 02:34:48;;;;;;;;;;;;;;;20.27;56.90;101847.41;7297275;19;152850;-49
2021/10/24 02:37:15;;;;;;;;;;;;;;;20.26;57.21;101845.72;7291352;19;152450;-50
2021/10/24 02:39:42;;;;;;;;;;;;;;;20.25;57.00;101846.84;7289313;19;152673;-50
2021/10/24 02:42:09;;;;;;;;;;;;;;;20.25;57.15;101837.59;7287214;19;154181;-50
2021/10/24 02:44:36;;;;;;;;;;;;;;;20.23;57.05;101840.69;7291469;19;151803;-49
2021/10/24 02:47:03;;;;;;;;;;;;;;;20.23;57.36;101839.84;7288786;19;153530;-50
2021/10/24 02:49:30;;;;;;;;;;;;;;;20.23;56.95;101834.22;7289510;19;152131;-50
2021/10/24 02:51:57;;;;;;;;;;;;;;;20.24;57.25;101830.28;7288663;19;151814;-50
2021/10/24 02:54:24;;;;;;;;;;;;;;;20.22;57.44;101836.19;7290321;19;152028;-50
2021/10/24 02:56:51;;;;;;;;;;;;;;;20.22;57.56;101836.19;7297093;19;153665;-50
2021/10/24 02:59:18;;;;;;;;;;;;;;;20.22;57.27;101838.16;7287703;19;153897;-50
2021/10/24 03:01:46;;;;;;;;;;;;;;;20.21;57.55;101828.06;7286653;19;154874;-50
2021/10/24 03:04:13;;;;;;;;;;;;;;;20.20;57.36;101830.03;7290703;19;152395;-50
2021/10/24 03:06:41;;;;;;;;;;;;;;;20.20;57.49;101821.63;7288585;19;152860;-50
2021/10/24 03:09:08;;;;;;;;;;;;;;;20.20;57.57;101817.97;7286306;19;152239;-50
2021/10/24 03:11:34;;;;;;;;;;;;;;;20.20;57.57;101812.34;7289849;19;151892;-50
2021/10/24 03:14:01;;;;;;;;;;;;;;;20.20;57.42;101815.16;7289891;19;151866;-50
2021/10/24 03:16:28;;;;;;;;;;;;;;;20.20;57.55;101809.56;7289077;19;153787;-51
2021/10/24 03:18:55;;;;;;;;;;;;;;;20.19;57.83;101819.09;7297477;19;151766;-50
2021/10/24 03:21:21;;;;;;;;;;;;;;;20.18;57.72;101806.16;7288571;19;154237;-50
2021/10/24 03:23:48;;;;;;;;;;;;;;;20.18;58.01;101795.78;7289574;19;151665;-50
2021/10/24 03:26:15;;;;;;;;;;;;;;;20.16;57.84;101797.22;7287971;19;153561;-49
2021/10/24 03:28:42;;;;;;;;;;;;;;;20.17;58.27;101798.91;7288453;19;154085;-50
2021/10/24 03:31:08;;;;;;;;;;;;;;;20.17;58.32;101790.50;7289124;19;152016;-50
2021/10/24 03:33:35;;;;;;;;;;;;;;;20.17;58.31;101796.91;7286589;19;153186;-49
2021/10/24 03:36:03;;;;;;;;;;;;;;;20.19;58.07;101793.84;7286193;19;153540;-50
2021/10/24 03:38:30;;;;;;;;;;;;;;;20.15;58.63;101787.97;7294555;19;152163;-50
2021/10/24 03:40:57;;;;;;;;;;;;;;;20.17;58.56;101782.88;7287471;19;152191;-50
2021/10/24 03:43:24;;;;;;;;;;;;;;;20.18;58.50;101786.53;7288370;19;152294;-50
2021/10/24 03:45:51;;;;;;;;;;;;;;;20.14;58.96;101777.00;7286639;19;152726;-50
2021/10/24 03:48:18;;;;;;;;;;;;;;;20.15;59.13;101776.72;7288487;19;153366;-50
2021/10/24 03:50:45;;;;;;;;;;;;;;;20.13;59.00;101767.75;7286846;19;152186;-50
2021/10/24 03:53:12;;;;;;;;;;;;;;;20.13;58.66;101769.72;7289584;19;152787;-50
2021/10/24 03:55:38;;;;;;;;;;;;;;;20.12;58.62;101771.72;7287363;19;153919;-50
2021/10/24 03:58:05;;;;;;;;;;;;;;;20.11;58.86;101772.81;7288736;19;152072;-50
2021/10/24 04:00:32;;;;;;;;;;;;;;;20.12;58.77;101782.09;7293110;19;152758;-50
2021/10/24 04:03:00;;;;;;;;;;;;;;;20.12;58.12;101771.72;7287210;19;151993;-50
2021/10/24 04:05:28;;;;;;;;;;;;;;;20.12;58.69;101768.06;7286487;19;153503;-50
2021/10/24 04:07:55;;;;;;;;;;;;;;;20.11;58.39;101769.16;7285679;19;152189;-50
2021/10/24 04:10:24;;;;;;;;;;;;;;;20.08;58.57;101764.16;7288256;19;152146;-50
2021/10/24 04:12:51;;;;;;;;;;;;;;;20.09;58.46;101765.81;7286197;19;152652;-51
2021/10/24 04:15:18;;;;;;;;;;;;;;;20.07;58.69;101768.91;7287453;19;152001;-50
2021/10/24 04:17:46;;;;;;;;;;;;;;;20.06;58.54;101760.78;7286439;19;151566;-50
2021/10/24 04:20:14;;;;;;;;;;;;;;;20.06;58.63;101757.97;7286504;19;153353;-50
2021/10/24 04:22:41;;;;;;;;;;;;;;;20.05;57.98;101757.13;7292914;19;154317;-50
2021/10/24 04:25:09;;;;;;;;;;;;;;;20.02;58.13;101754.91;7286601;19;152741;-50
2021/10/24 04:27:37;;;;;;;;;;;;;;;20.04;58.62;101748.97;7282363;19;153824;-50
2021/10/24 04:30:05;;;;;;;;;;;;;;;20.02;58.44;101754.06;7288083;19;151955;-51
2021/10/24 04:32:32;;;;;;;;;;;;;;;20.03;58.62;101750.13;7286207;19;153953;-50
2021/10/24 04:34:59;;;;;;;;;;;;;;;20.01;58.87;101747.59;7284697;19;153955;-50
2021/10/24 04:37:26;;;;;;;;;;;;;;;19.99;58.87;101750.69;7283506;19;151497;-50
2021/10/24 04:39:53;;;;;;;;;;;;;;;19.99;58.71;101750.69;7288429;19;152649;-50
2021/10/24 04:42:19;;;;;;;;;;;;;;;19.97;59.06;101740.88;7284816;19;152173;-50
2021/10/24 04:44:46;;;;;;;;;;;;;;;19.96;59.44;101740.03;7294722;19;151748;-50
2021/10/24 04:47:13;;;;;;;;;;;;;;;19.95;59.19;101735.56;7282107;19;154067;-50
2021/10/24 04:49:40;;;;;;;;;;;;;;;19.94;59.10;101733.88;7287128;19;151852;-50
2021/10/24 04:52:07;;;;;;;;;;;;;;;19.95;59.38;101735.56;7286954;19;153532;-50
2021/10/24 04:54:35;;;;;;;;;;;;;;;19.93;59.21;101737.81;7284897;19;153385;-51
2021/10/24 04:57:03;;;;;;;;;;;;;;;19.94;59.60;101742.28;7285422;19;151950;-50
2021/10/24 04:59:29;;;;;;;;;;;;;;;19.93;59.86;101732.22;7284032;19;151839;-50
2021/10/24 05:01:56;;;;;;;;;;;;;;;19.93;59.29;101722.94;7286124;19;153783;-50
2021/10/24 05:04:23;;;;;;;;;;;;;;;19.93;59.38;101728.56;7286369;19;152706;-50
2021/10/24 05:06:50;;;;;;;;;;;;;;;19.90;59.73;101729.94;7290495;19;153318;-51
2021/10/24 05:09:17;;;;;;;;;;;;;;;19.88;59.49;101726.63;7287366;19;152019;-50
2021/10/24 05:11:44;;;;;;;;;;;;;;;19.89;59.34;101724.66;7287664;19;153131;-50
2021/10/24 05:14:11;;;;;;;;;;;;;;;19.88;59.44;101721.00;7283498;19;153054;-50
2021/10/24 05:16:38;;;;;;;;;;;;;;;19.89;59.13;101719.03;7288303;19;151705;-51
2021/10/24 05:19:05;;;;;;;;;;;;;;;19.88;59.45;101715.41;7284986;19;151932;-50
2021/10/24 05:21:32;;;;;;;;;;;;;;;19.86;59.92;101725.19;7284394;19;153726;-50
2021/10/24 05:24:00;;;;;;;;;;;;;;;19.85;60.01;101717.94;7286008;19;151502;-50
2021/10/24 05:26:26;;;;;;;;;;;;;;;19.83;59.57;101707.00;7283312;19;152072;-50
2021/10/24 05:28:53;;;;;;;;;;;;;;;19.84;59.87;101714.28;7292230;19;151836;-51
2021/10/24 05:31:20;;;;;;;;;;;;;;;19.83;59.25;101712.59;7284083;19;153067;-50
2021/10/24 05:33:47;;;;;;;;;;;;;;;19.84;59.85;101707.84;7283561;19;153025;-50
2021/10/24 05:36:14;;;;;;;;;;;;;;;19.83;59.65;101706.16;7283907;19;151599;-50
2021/10/24 05:38:40;;;;;;;;;;;;;;;19.83;59.87;101697.72;7285019;19;152790;-50
2021/10/24 05:41:07;;;;;;;;;;;;;;;19.80;59.99;101696.34;7283046;19;153943;-50
2021/10/24 05:43:34;;;;;;;;;;;;;;;19.81;59.67;101692.41;7286056;19;152291;-50
2021/10/24 05:46:01;;;;;;;;;;;;;;;19.81;59.87;101702.78;7285168;19;152907;-51
2021/10/24 05:48:28;;;;;;;;;;;;;;;19.78;59.91;101701.41;7290997;19;153481;-50
2021/10/24 05:50:55;;;;;;;;;;;;;;;19.79;59.58;101705.88;7285611;19;153236;-50
2021/10/24 05:53:22;;;;;;;;;;;;;;;19.79;59.68;101702.25;7284360;19;154010;-50
2021/10/24 05:55:49;;;;;;;;;;;;;;;19.78;59.53;101694.94;7286339;19;152252;-50
2021/10/24 05:58:16;;;;;;;;;;;;;;;19.77;59.47;101690.44;7285371;19;154372;-51
2021/10/24 06:00:43;;;;;;;;;;;;;;;19.78;59.78;101686.53;7281290;19;153905;-50
2021/10/24 06:03:09;;;;;;;;;;;;;;;19.76;59.45;101678.41;7283991;19;151886;-50
2021/10/24 06:05:36;;;;;;;;;;;;;;;19.76;59.74;101691.59;7285049;19;152763;-50
2021/10/24 06:08:03;;;;;;;;;;;;;;;19.76;59.57;101678.41;7282454;19;154092;-49
2021/10/24 06:10:37;;;;;;;;;;;;;;;19.77;59.82;101674.47;7292878;19;151752;-51
2021/10/24 06:13:03;;;;;;;;;;;;;;;19.82;60.14;101668.84;7282090;19;154311;-50
2021/10/24 06:15:30;;;;;;;;;;;;;;;19.90;60.03;101670.22;7283575;19;151761;-50
2021/10/24 06:17:57;;;;;;;;;;;;;;;19.95;60.15;101667.38;7282794;19;152900;-51
2021/10/24 06:20:24;;;;;;;;;;;;;;;19.98;60.29;101664.88;7283406;19;152821;-50
2021/10/24 06:22:51;;;;;;;;;;;;;;;20.03;60.96;101666.81;7282330;19;151994;-50
2021/10/24 06:25:19;;;;;;;;;;;;;;;20.10;61.03;101670.13;7283280;19;153591;-50
2021/10/24 06:27:45;;;;;;;;;;;;;;;20.17;60.99;101664.22;7279807;19;153834;-50
2021/10/24 06:30:14;;;;;;;;;;;;;;;20.24;61.36;101671.19;7282294;19;151954;-50
2021/10/24 06:32:40;;;;;;;;;;;;;;;20.31;61.76;101676.50;7289432;19;152970;-50
2021/10/24 06:35:08;;;;;;;;;;;;;;;20.40;61.65;101669.16;7284446;19;151739;-50
2021/10/24 06:37:38;;;;;;;;;;;;;;;20.47;61.72;101666.03;7281694;19;153671;-50
2021/10/24 06:40:06;;;;;;;;;;;;;;;20.55;61.13;101671.03;7283235;19;153370;-50
2021/10/24 06:42:33;;;;;;;;;;;;;;;20.63;61.58;101667.59;7284491;19;151817;-50
2021/10/24 06:45:00;;;;;;;;;;;;;;;20.70;60.70;101659.69;7283444;19;153739;-51
2021/10/24 06:47:27;;;;;;;;;;;;;;;20.76;60.78;101670.59;7282087;19;154169;-50
2021/10/24 06:49:54;;;;;;;;;;;;;;;20.83;60.11;101667.47;7281820;19;152381;-50
2021/10/24 06:52:21;;;;;;;;;;;;;;;20.90;59.59;101669.91;7284634;19;152882;-50
2021/10/24 06:54:47;;;;;;;;;;;;;;;20.98;60.07;101672.13;7288136;19;152225;-50
2021/10/24 06:57:14;;;;;;;;;;;;;;;21.05;60.11;101672.59;7282763;19;152620;-50
2021/10/24 06:59:42;;;;;;;;;;;;;;;21.09;59.82;101665.25;7279502;19;152300;-50
2021/10/24 07:02:09;;;;;;;;;;;;;;;21.16;59.22;101665.81;7287485;19;151934;-50
2021/10/24 07:04:37;;;;;;;;;;;;;;;21.22;58.76;101668.25;7288580;19;153120;-51
2021/10/24 07:07:04;;;;;;;;;;;;;;;21.29;58.34;101667.94;7288874;19;154222;-50
2021/10/24 07:09:31;;;;;;;;;;;;;;;21.35;58.08;101665.91;7288975;19;152204;-50
2021/10/24 07:12:13;;;;;;;;;;;;;;;21.41;57.92;101668.34;7287788;19;151665;-51
2021/10/24 07:14:40;;;;;;;;;;;;;;;21.45;58.10;101657.34;7289212;19;154085;-50
2021/10/24 07:17:07;;;;;;;;;;;;;;;21.49;58.00;101662.06;7297146;19;152065;-50
2021/10/24 07:19:34;;;;;;;;;;;;;;;21.53;57.47;101668.78;7288748;19;153253;-50
2021/10/24 07:22:01;;;;;;;;;;;;;;;21.56;57.43;101671.00;7289215;19;152320;-50
2021/10/24 07:24:28;;;;;;;;;;;;;;;21.60;57.64;101680.53;7290298;19;152536;-50
2021/10/24 07:26:54;;;;;;;;;;;;;;;21.62;57.37;101674.63;7286904;19;153213;-50
2021/10/24 07:29:21;;;;;;;;;;;;;;;21.65;57.59;101682.44;7289646;19;151927;-50
2021/10/24 07:31:49;;;;;;;;;;;;;;;21.67;57.33;101680.16;7288776;19;151659;-50
2021/10/24 07:34:16;;;;;;;;;;;;;;;21.67;57.38;101674.53;7288955;19;153508;-50
2021/10/24 07:36:43;;;;;;;;;;;;;;;21.70;57.75;101674.78;7294623;19;152105;-50
2021/10/24 07:39:10;;;;;;;;;;;;;;;21.70;57.75;101673.94;7288402;19;153725;-50
2021/10/24 07:41:37;;;;;;;;;;;;;;;21.73;57.36;101673.34;7288919;19;151960;-50
2021/10/24 07:44:06;;;;;;;;;;;;;;;21.73;57.35;101668.56;7287886;19;151862;-50
2021/10/24 07:46:34;;;;;;;;;;;;;;;21.74;57.60;101675.88;7286285;19;154068;-50
2021/10/24 07:49:01;;;;;;;;;;;;;;;21.76;57.57;101671.94;7286167;19;152364;-50
2021/10/24 07:51:29;;;;;;;;;;;;;;;21.77;57.72;101673.56;7287365;19;153040;-50
2021/10/24 07:53:56;;;;;;;;;;;;;;;21.77;57.88;101677.22;7285864;19;153946;-50
2021/10/24 07:56:23;;;;;;;;;;;;;;;21.77;57.42;101676.41;7286893;19;151982;-50
2021/10/24 07:58:50;;;;;;;;;;;;;;;21.78;58.02;101676.09;7292738;19;152694;-50
2021/10/24 08:01:18;;;;;;;;;;;;;;;21.78;57.74;101672.44;7288737;19;151845;-49
2021/10/24 08:03:46;;;;;;;;;;;;;;;21.76;57.85;101678.38;7289425;19;151854;-50
2021/10/24 08:06:13;;;;;;;;;;;;;;;21.76;58.18;101678.38;7285003;19;153431;-49
2021/10/24 08:08:40;;;;;;;;;;;;;;;21.76;58.44;101677.56;7286170;19;152006;-49
2021/10/24 08:11:07;;;;;;;;;;;;;;;21.74;58.12;101675.88;7286895;19;152099;-49
2021/10/24 08:13:35;;;;;;;;;;;;;;;21.74;58.41;101678.69;7285354;19;153267;-49
2021/10/24 08:16:02;;;;;;;;;;;;;;;21.74;58.35;101681.50;7288350;19;151710;-49
2021/10/24 08:18:29;;;;;;;;;;;;;;;21.72;58.42;101680.94;7287519;19;152165;-49
2021/10/24 08:20:56;;;;;;;;;;;;;;;21.72;58.17;101678.13;7292819;19;152638;-49
2021/10/24 08:23:24;;;;;;;;;;;;;;;21.72;58.22;101677.28;7285946;19;152981;-49
2021/10/24 08:25:51;;;;;;;;;;;;;;;21.70;58.25;101673.94;7287422;19;154608;-50
2021/10/24 08:28:18;;;;;;;;;;;;;;;21.69;58.18;101677.91;7285533;19;152207;-49
2021/10/24 08:30:45;;;;;;;;;;;;;;;21.70;58.28;101676.78;7288293;19;152551;-50
2021/10/24 08:33:12;;;;;;;;;;;;;;;21.68;58.28;101665.81;7285401;19;153730;-49
2021/10/24 08:35:39;;;;;;;;;;;;;;;21.67;58.47;101675.38;7286099;19;152038;-49
2021/10/24 08:38:06;;;;;;;;;;;;;;;21.68;58.49;101676.22;7286090;19;152646;-50
2021/10/24 08:40:33;;;;;;;;;;;;;;;21.66;59.11;101667.25;7284513;19;155247;-49
2021/10/24 08:43:13;;;;;;;;;;;;;;;21.66;58.96;101662.47;7294444;19;151945;-49
2021/10/24 08:45:42;;;;;;;;;;;;;;;21.68;59.07;101667.78;7285280;19;153389;-49
2021/10/24 08:48:09;;;;;;;;;;;;;;;21.71;58.57;101670.81;7284613;19;152192;-48
2021/10/24 08:50:36;;;;;;;;;;;;;;;21.45;48.92;101675.06;7284316;19;153184;-48
2021/10/24 08:53:06;;;;;;;;;;;;;;;20.83;45.94;101668.28;7284392;19;154105;-49
2021/10/24 08:55:33;;;;;;;;;;;;;;;20.58;44.75;101667.66;7285349;19;151585;-51
2021/10/24 08:58:01;;;;;;;;;;;;;;;20.31;45.49;101663.31;7283943;19;153249;-49
2021/10/24 09:00:40;;;;;;;;;;;;;;;20.04;45.34;101662.88;7283128;19;153636;-48
2021/10/24 09:03:09;;;;;;;;;;;;;;;19.99;45.52;101660.06;7287291;19;151743;-48
2021/10/24 09:05:39;;;;;;;;;;;;;;;19.80;45.63;101668.31;7291408;19;152712;-48
2021/10/24 09:08:07;;;;;;;;;;;;;;;19.59;45.92;101654.63;7283731;19;151831;-49
2021/10/24 09:10:36;;;;;;;;;;;;;;;19.53;46.31;101654.63;7285357;19;153064;-48
2021/10/24 09:13:04;;;;;;;;;;;;;;;19.52;46.88;101652.97;7283947;19;153393;-49
2021/10/24 09:15:34;;;;;;;;;;;;;;;19.40;46.86;101654.34;7282469;19;151895;-51
2021/10/24 09:18:05;;;;;;;;;;;;;;;19.34;47.01;101661.13;7287203;19;152643;-51
2021/10/24 09:20:50;;;;;;;;;;;;;;;19.27;47.35;101647.38;7285488;19;154293;-51
2021/10/24 09:23:17;;;;;;;;;;;;;;;19.56;48.78;101655.22;7284232;19;152686;-49
2021/10/24 09:25:47;;;;;;;;;;;;;;;19.67;49.28;101662.47;7285061;19;153536;-48
2021/10/24 09:28:15;;;;;;;;;;;;;;;19.78;49.26;101648.13;7290238;19;153548;-49
2021/10/24 09:30:42;;;;;;;;;;;;;;;19.88;49.84;101653.69;7285275;19;153091;-49
2021/10/24 09:33:10;;;;;;;;;;;;;;;19.97;49.53;101649.16;7285391;19;153321;-49
2021/10/24 09:35:38;;;;;;;;;;;;;;;20.03;50.03;101637.94;7284430;19;151785;-48
2021/10/24 09:38:06;;;;;;;;;;;;;;;20.10;49.84;101646.84;7286248;19;153402;-49
2021/10/24 09:40:35;;;;;;;;;;;;;;;20.14;50.37;101642.34;7283408;19;153287;-47
2021/10/24 09:43:04;;;;;;;;;;;;;;;20.18;50.68;101640.63;7282980;19;152085;-49
2021/10/24 09:45:31;;;;;;;;;;;;;;;20.22;50.72;101652.94;7284434;19;152630;-48
2021/10/24 09:48:05;;;;;;;;;;;;;;;20.27;50.65;101645.34;7291136;19;153144;-48
2021/10/24 09:50:34;;;;;;;;;;;;;;;20.35;50.85;101650.38;7282973;19;153561;-49
2021/10/24 09:53:04;;;;;;;;;;;;;;;20.41;50.57;101649.22;7282597;19;154183;-48
2021/10/24 09:55:31;;;;;;;;;;;;;;;20.48;51.00;101648.91;7285423;19;152370;-48
2021/10/24 09:57:58;;;;;;;;;;;;;;;20.50;50.12;101641.03;7285473;19;153264;-49
2021/10/24 10:00:25;;;;;;;;;;;;;;;20.54;50.14;101642.09;7281402;19;152236;-51
2021/10/24 10:02:52;;;;;;;;;;;;;;;20.62;50.05;101640.66;7283186;19;151663;-49
2021/10/24 10:05:19;;;;;;;;;;;;;;;20.67;49.98;101644.25;7285596;19;153011;-49
2021/10/24 10:07:46;;;;;;;;;;;;;;;20.75;49.36;101638.03;7282957;19;152640;-49
2021/10/24 10:10:14;;;;;;;;;;;;;;;20.82;49.35;101632.06;7293189;19;151924;-48
2021/10/24 10:12:45;;;;;;;;;;;;;;;20.88;49.41;101624.44;7283275;19;153380;-50
2021/10/24 10:15:13;;;;;;;;;;;;;;;20.95;49.18;101622.97;7282933;19;152104;-49
2021/10/24 10:17:40;;;;;;;;;;;;;;;21.01;48.91;101620.94;7285203;19;153336;-50
2021/10/24 10:20:10;;;;;;;;;;;;;;;21.07;48.98;101605.72;7282893;19;153341;-49
2021/10/24 10:22:37;;;;;;;;;;;;;;;21.11;48.99;101604.00;7284803;19;151699;-49
2021/10/24 10:25:06;;;;;;;;;;;;;;;21.14;49.07;101601.47;7284970;19;153477;-49
2021/10/24 10:27:39;;;;;;;;;;;;;;;21.21;48.65;101606.75;7282137;19;152791;-50
2021/10/24 10:30:09;;;;;;;;;;;;;;;21.23;48.40;101596.03;7281761;19;152234;-49
2021/10/24 10:32:39;;;;;;;;;;;;;;;21.26;48.82;101601.03;7290594;19;152192;-49
2021/10/24 10:35:08;;;;;;;;;;;;;;;21.29;48.95;101587.25;7275056;19;152940;-49
2021/10/24 10:37:38;;;;;;;;;;;;;;;21.32;48.24;101583.00;7290449;19;151905;-50
2021/10/24 10:40:11;;;;;;;;;;;;;;;21.30;48.01;101577.66;7287034;19;153301;-49
2021/10/24 10:42:54;;;;;;;;;;;;;;;21.31;48.01;101581.31;7288784;19;151681;-49
2021/10/24 10:45:24;;;;;;;;;;;;;;;21.30;48.43;101590.91;7287885;19;152780;-50
2021/10/24 10:47:54;;;;;;;;;;;;;;;21.30;48.01;101593.72;7287416;19;153282;-50
2021/10/24 10:50:24;;;;;;;;;;;;;;;21.30;47.57;101602.16;7290168;19;152405;-51
2021/10/24 10:52:51;;;;;;;;;;;;;;;21.28;47.33;101602.44;7289389;19;153150;-50
2021/10/24 10:55:19;;;;;;;;;;;;;;;21.26;47.72;101586.97;7296168;19;153225;-50
2021/10/24 10:57:46;;;;;;;;;;;;;;;21.30;47.28;101590.91;7289763;19;151830;-50
2021/10/24 11:00:16;;;;;;;;;;;;;;;21.34;47.66;101593.94;7286531;19;154000;-50
2021/10/24 11:02:48;;;;;;;;;;;;;;;21.35;47.93;101593.63;7290688;19;151831;-50
2021/10/24 11:05:32;;;;;;;;;;;;;;;21.36;47.97;101594.47;7289297;19;153846;-49
2021/10/24 11:07:59;;;;;;;;;;;;;;;21.37;48.26;101588.56;7287310;19;153524;-49
2021/10/24 11:10:28;;;;;;;;;;;;;;;21.39;48.15;101589.13;7287549;19;152119;-49
2021/10/24 11:12:55;;;;;;;;;;;;;;;21.40;48.22;101599.19;7290442;19;153470;-49
2021/10/24 11:15:27;;;;;;;;;;;;;;;21.38;48.60;101592.22;7285979;19;153380;-49
2021/10/24 11:17:54;;;;;;;;;;;;;;;21.36;48.38;101586.88;7294784;19;152366;-49
2021/10/24 11:20:23;;;;;;;;;;;;;;;21.35;48.00;101579.56;7288349;19;153300;-50
2021/10/24 11:22:51;;;;;;;;;;;;;;;21.41;48.13;101577.53;7286645;19;151747;-49
2021/10/24 11:25:39;;;;;;;;;;;;;;;21.37;48.50;101591.38;7289277;19;153300;-49
2021/10/24 11:28:08;;;;;;;;;;;;;;;21.32;48.78;101584.97;7286064;19;152311;-49
2021/10/24 11:30:36;;;;;;;;;;;;;;;21.31;48.47;101578.50;7285542;19;152115;-50
2021/10/24 11:33:03;;;;;;;;;;;;;;;21.30;48.08;101566.41;7287314;19;153313;-49
2021/10/24 11:35:30;;;;;;;;;;;;;;;21.30;48.49;101569.22;7285198;19;154131;-49
2021/10/24 11:37:59;;;;;;;;;;;;;;;21.33;47.49;101569.78;7283925;19;151765;-49
2021/10/24 11:40:30;;;;;;;;;;;;;;;21.31;47.44;101558.81;7293839;19;153012;-49
2021/10/24 11:43:00;;;;;;;;;;;;;;;21.29;47.59;101555.50;7287480;19;151791;-49
2021/10/24 11:45:28;;;;;;;;;;;;;;;21.31;47.29;101547.59;7288352;19;152910;-49
2021/10/24 11:47:58;;;;;;;;;;;;;;;21.31;47.21;101541.97;7287404;19;153266;-49
2021/10/24 11:50:27;;;;;;;;;;;;;;;21.29;47.22;101530.19;7285965;19;151833;-49
2021/10/24 11:52:58;;;;;;;;;;;;;;;21.25;47.54;101531.94;7288390;19;153733;-49
2021/10/24 11:55:25;;;;;;;;;;;;;;;21.25;47.63;101531.94;7285239;19;153764;-49
2021/10/24 12:00:39;;;;;;;;;;;;;;;21.13;47.23;101535.16;7292272;19;152146;-49
2021/10/24 12:03:06;;;;;;;;;;;;;;;21.17;47.00;101518.50;7284562;19;152288;-50
2021/10/24 12:05:36;;;;;;;;;;;;;;;21.14;47.19;101521.94;7288418;19;152272;-50
2021/10/24 12:08:03;;;;;;;;;;;;;;;21.12;47.40;101515.75;7285411;19;152475;-49
2021/10/24 12:10:35;;;;;;;;;;;;;;;21.15;47.44;101507.59;7282662;19;152807;-50
2021/10/24 12:13:03;;;;;;;;;;;;;;;21.15;47.46;101509.56;7288464;19;152634;-49
2021/10/24 12:15:33;;;;;;;;;;;;;;;21.13;47.18;101497.78;7287642;19;153392;-50
2021/10/24 12:18:09;;;;;;;;;;;;;;;21.14;47.24;101507.88;7287365;19;152006;-50
2021/10/24 12:20:36;;;;;;;;;;;;;;;21.16;47.60;101520.53;7287436;19;152694;-51
2021/10/24 12:23:04;;;;;;;;;;;;;;;21.09;47.53;101511.56;7292647;19;152918;-51
2021/10/24 12:25:34;;;;;;;;;;;;;;;21.09;47.33;101520.00;7288850;19;153511;-50
2021/10/24 12:28:04;;;;;;;;;;;;;;;21.08;47.84;101509.88;7286398;19;154354;-50
2021/10/24 12:30:32;;;;;;;;;;;;;;;21.08;47.82;101509.03;7283314;19;152058;-49
2021/10/24 12:33:02;;;;;;;;;;;;;;;21.00;47.50;101506.88;7285744;19;152984;-49
2021/10/24 12:35:29;;;;;;;;;;;;;;;20.96;47.16;101501.03;7284766;19;153962;-50